createdAt,value
2022-08-20T00:00:12.846Z,16.7
2022-08-20T00:02:12.867Z,16.6
2022-08-20T00:04:12.850Z,16.6
2022-08-20T00:06:12.860Z,16.6
2022-08-20T00:08:12.867Z,16.6
2022-08-20T00:10:12.866Z,16.5
2022-08-20T00:12:12.878Z,16.4
2022-08-20T00:14:12.879Z,16.4
2022-08-20T00:16:12.887Z,16.4
2022-08-20T00:18:12.889Z,16.4
2022-08-20T00:20:12.894Z,16.4
2022-08-20T00:22:12.900Z,16.4
2022-08-20T00:24:12.903Z,16.5
2022-08-20T00:26:12.910Z,16.5
2022-08-20T00:28:12.915Z,16.6
2022-08-20T00:30:12.925Z,16.6
2022-08-20T00:32:12.917Z,16.6
2022-08-20T00:34:12.921Z,16.6
2022-08-20T00:36:12.931Z,16.5
2022-08-20T00:38:12.933Z,16.4
2022-08-20T00:40:22.135Z,16.3
2022-08-20T00:42:12.937Z,16.3
2022-08-20T00:44:12.940Z,16.2
2022-08-20T00:46:12.950Z,16.2
2022-08-20T00:48:12.950Z,16.2
2022-08-20T00:50:12.960Z,16.2
2022-08-20T00:52:12.959Z,16.2
2022-08-20T00:54:12.957Z,16.2
2022-08-20T00:56:12.969Z,16.2
2022-08-20T00:58:12.969Z,16.2
2022-08-20T01:00:12.971Z,16.2
2022-08-20T01:02:13.055Z,16.2
2022-08-20T01:04:12.980Z,16.2
2022-08-20T01:06:12.981Z,16.2
2022-08-20T01:08:12.982Z,16.2
2022-08-20T01:10:12.984Z,16.3
2022-08-20T01:12:12.992Z,16.3
2022-08-20T01:14:12.986Z,16.4
2022-08-20T01:16:12.991Z,16.4
2022-08-20T01:18:12.994Z,16.5
2022-08-20T01:20:12.996Z,16.5
2022-08-20T01:22:13.000Z,16.5
2022-08-20T01:24:13.002Z,16.5
2022-08-20T01:26:13.001Z,16.5
2022-08-20T01:28:13.002Z,16.5
2022-08-20T01:30:13.010Z,16.5
2022-08-20T01:32:13.015Z,16.4
2022-08-20T01:34:13.008Z,16.4
2022-08-20T01:36:13.010Z,16.4
2022-08-20T01:38:13.013Z,16.4
2022-08-20T01:40:13.034Z,16.4
2022-08-20T01:42:13.013Z,16.3
2022-08-20T01:44:13.441Z,16.3
2022-08-20T01:46:13.024Z,16.3
2022-08-20T01:48:13.036Z,16.3
2022-08-20T01:50:13.037Z,16.3
2022-08-20T01:52:13.046Z,16.3
2022-08-20T01:54:13.054Z,16.3
2022-08-20T01:56:13.067Z,16.3
2022-08-20T01:58:13.080Z,16.3
2022-08-20T02:00:19.634Z,16.3
2022-08-20T02:02:13.101Z,16.3
2022-08-20T02:04:14.709Z,16.3
2022-08-20T02:06:13.130Z,16.3
2022-08-20T02:08:13.140Z,16.3
2022-08-20T02:10:13.156Z,16.3
2022-08-20T02:12:13.162Z,16.3
2022-08-20T02:14:13.173Z,16.3
2022-08-20T02:16:13.169Z,16.3
2022-08-20T02:18:13.176Z,16.3
2022-08-20T02:20:13.192Z,16.3
2022-08-20T02:22:13.204Z,16.3
2022-08-20T02:24:13.216Z,16.2
2022-08-20T02:26:13.229Z,16.2
2022-08-20T02:28:13.241Z,16.2
2022-08-20T02:30:19.260Z,16.2
2022-08-20T02:32:23.882Z,16.2
2022-08-20T02:34:21.718Z,16.2
2022-08-20T02:36:13.298Z,16.2
2022-08-20T02:38:13.305Z,16.2
2022-08-20T02:40:13.331Z,16.2
2022-08-20T02:42:13.319Z,16.1
2022-08-20T02:44:13.332Z,16.2
2022-08-20T02:46:13.339Z,16.1
2022-08-20T02:48:13.351Z,16.1
2022-08-20T02:50:13.364Z,16.1
2022-08-20T02:52:13.370Z,16.1
2022-08-20T02:54:13.373Z,16.1
2022-08-20T02:56:13.392Z,16.1
2022-08-20T02:58:13.403Z,16.2
2022-08-20T03:00:13.418Z,16.2
2022-08-20T03:02:13.427Z,16.2
2022-08-20T03:04:13.436Z,16.2
2022-08-20T03:06:13.447Z,16.1
2022-08-20T03:08:13.457Z,16.1
2022-08-20T03:10:13.454Z,16
2022-08-20T03:12:13.455Z,16
2022-08-20T03:14:13.467Z,15.9
2022-08-20T03:16:13.479Z,15.8
2022-08-20T03:18:13.489Z,15.8
2022-08-20T03:20:13.503Z,15.8
2022-08-20T03:22:13.515Z,15.8
2022-08-20T03:24:13.522Z,15.8
2022-08-20T03:26:13.540Z,15.9
2022-08-20T03:28:13.543Z,15.8
2022-08-20T03:30:13.557Z,15.8
2022-08-20T03:32:13.564Z,15.8
2022-08-20T03:34:13.578Z,15.8
2022-08-20T03:36:13.593Z,15.8
2022-08-20T03:38:13.602Z,15.7
2022-08-20T03:40:13.627Z,15.6
2022-08-20T03:42:13.619Z,15.6
2022-08-20T03:44:13.620Z,15.6
2022-08-20T03:46:22.315Z,15.5
2022-08-20T03:48:13.628Z,15.5
2022-08-20T03:50:14.619Z,15.4
2022-08-20T03:52:13.631Z,15.4
2022-08-20T03:54:13.636Z,15.4
2022-08-20T03:56:13.638Z,15.3
2022-08-20T03:58:13.638Z,15.3
2022-08-20T04:00:13.648Z,15.3
2022-08-20T04:02:13.668Z,15.3
2022-08-20T04:04:13.652Z,15.3
2022-08-20T04:06:13.652Z,15.3
2022-08-20T04:08:13.655Z,15.3
2022-08-20T04:10:13.656Z,15.3
2022-08-20T04:12:13.658Z,15.2
2022-08-20T04:14:17.445Z,15.3
2022-08-20T04:16:14.438Z,15.3
2022-08-20T04:18:13.662Z,15.3
2022-08-20T04:20:13.659Z,15.4
2022-08-20T04:22:13.675Z,15.4
2022-08-20T04:24:22.142Z,15.4
2022-08-20T04:26:13.660Z,15.4
2022-08-20T04:28:14.219Z,15.4
2022-08-20T04:30:13.664Z,15.4
2022-08-20T04:32:13.664Z,15.4
2022-08-20T04:34:13.669Z,15.4
2022-08-20T04:36:13.669Z,15.4
2022-08-20T04:38:13.669Z,15.4
2022-08-20T04:40:13.748Z,15.5
2022-08-20T04:42:13.676Z,15.5
2022-08-20T04:44:13.669Z,15.5
2022-08-20T04:46:13.670Z,15.6
2022-08-20T04:48:15.246Z,15.6
2022-08-20T04:50:13.678Z,15.6
2022-08-20T04:52:13.673Z,15.6
2022-08-20T04:54:13.671Z,15.7
2022-08-20T04:56:13.679Z,15.7
2022-08-20T04:58:13.677Z,15.7
2022-08-20T05:00:13.678Z,15.8
2022-08-20T05:02:13.683Z,15.8
2022-08-20T05:04:13.681Z,15.8
2022-08-20T05:06:13.683Z,15.9
2022-08-20T05:08:16.712Z,15.9
2022-08-20T05:10:13.689Z,16
2022-08-20T05:12:13.687Z,16
2022-08-20T05:14:13.830Z,16.1
2022-08-20T05:16:13.688Z,16.1
2022-08-20T05:18:13.689Z,16.2
2022-08-20T05:20:13.690Z,16.3
2022-08-20T05:22:13.687Z,16.4
2022-08-20T05:24:13.749Z,16.4
2022-08-20T05:26:13.695Z,16.4
2022-08-20T05:28:13.692Z,16.5
2022-08-20T05:30:13.746Z,16.5
2022-08-20T05:32:13.697Z,16.5
2022-08-20T05:34:13.795Z,16.5
2022-08-20T05:36:13.694Z,16.5
2022-08-20T05:38:13.693Z,16.6
2022-08-20T05:40:13.736Z,16.6
2022-08-20T05:42:13.694Z,16.6
2022-08-20T05:44:13.926Z,16.7
2022-08-20T05:46:13.698Z,16.6
2022-08-20T05:48:13.698Z,16.7
2022-08-20T05:50:19.783Z,16.7
2022-08-20T05:52:13.700Z,16.7
2022-08-20T05:54:13.796Z,16.7
2022-08-20T05:56:13.703Z,16.8
2022-08-20T05:58:13.700Z,16.8
2022-08-20T06:00:13.707Z,16.8
2022-08-20T06:02:13.718Z,16.8
2022-08-20T06:04:13.818Z,16.8
2022-08-20T06:06:15.041Z,16.9
2022-08-20T06:08:13.716Z,16.9
2022-08-20T06:10:13.722Z,16.9
2022-08-20T06:12:13.724Z,16.9
2022-08-20T06:14:13.726Z,16.8
2022-08-20T06:16:13.727Z,16.8
2022-08-20T06:18:28.196Z,16.8
2022-08-20T06:20:13.727Z,16.8
2022-08-20T06:22:18.443Z,16.7
2022-08-20T06:24:13.728Z,16.7
2022-08-20T06:26:13.728Z,16.6
2022-08-20T06:28:13.724Z,16.6
2022-08-20T06:30:13.727Z,16.5
2022-08-20T06:32:13.732Z,16.6
2022-08-20T06:34:13.733Z,16.6
2022-08-20T06:36:13.738Z,16.7
2022-08-20T06:38:13.739Z,16.7
2022-08-20T06:40:13.781Z,16.8
2022-08-20T06:42:13.739Z,16.8
2022-08-20T06:44:13.734Z,16.8
2022-08-20T06:46:13.739Z,16.8
2022-08-20T06:48:15.047Z,16.8
2022-08-20T06:50:13.738Z,16.8
2022-08-20T06:52:13.742Z,16.7
2022-08-20T06:54:13.741Z,16.9
2022-08-20T06:56:13.743Z,16.7
2022-08-20T06:58:15.692Z,16.8
2022-08-20T07:00:13.748Z,16.8
2022-08-20T07:02:13.748Z,16.9
2022-08-20T07:04:13.753Z,16.7
2022-08-20T07:06:13.750Z,16.7
2022-08-20T07:08:13.753Z,16.8
2022-08-20T07:10:13.756Z,16.9
2022-08-20T07:12:13.755Z,16.9
2022-08-20T07:14:13.764Z,17
2022-08-20T07:16:13.758Z,16.9
2022-08-20T07:18:13.762Z,16.8
2022-08-20T07:20:13.764Z,16.9
2022-08-20T07:22:13.762Z,16.9
2022-08-20T07:24:13.767Z,16.9
2022-08-20T07:26:13.769Z,16.9
2022-08-20T07:28:13.761Z,17
2022-08-20T07:30:15.154Z,17.3
2022-08-20T07:32:13.771Z,17.1
2022-08-20T07:34:13.774Z,17.1
2022-08-20T07:36:13.768Z,17
2022-08-20T07:38:13.772Z,16.7
2022-08-20T07:40:13.836Z,16.6
2022-08-20T07:42:13.782Z,16.6
2022-08-20T07:44:13.782Z,16.5
2022-08-20T07:46:13.782Z,16.6
2022-08-20T07:48:13.779Z,16.6
2022-08-20T07:50:13.783Z,16.4
2022-08-20T07:52:13.803Z,16.5
2022-08-20T07:54:13.795Z,16.4
2022-08-20T07:56:13.782Z,16.5
2022-08-20T07:58:13.785Z,16.6
2022-08-20T08:00:13.787Z,16.7
2022-08-20T08:02:13.783Z,16.7
2022-08-20T08:04:13.794Z,16.8
2022-08-20T08:06:13.800Z,16.9
2022-08-20T08:08:13.799Z,16.9
2022-08-20T08:10:13.793Z,16.9
2022-08-20T08:12:13.795Z,16.9
2022-08-20T08:14:13.800Z,17
2022-08-20T08:16:13.805Z,16.9
2022-08-20T08:18:13.805Z,17
2022-08-20T08:20:13.802Z,17.1
2022-08-20T08:22:13.816Z,17.1
2022-08-20T08:24:19.344Z,17
2022-08-20T08:26:16.088Z,17
2022-08-20T08:28:13.818Z,17
2022-08-20T08:30:13.816Z,17
2022-08-20T08:32:13.819Z,17.1
2022-08-20T08:34:13.826Z,17.1
2022-08-20T08:36:13.817Z,17.1
2022-08-20T08:38:14.238Z,17.2
2022-08-20T08:40:13.888Z,17
2022-08-20T08:42:14.142Z,17.1
2022-08-20T08:44:13.837Z,17.2
2022-08-20T08:46:13.838Z,17.2
2022-08-20T08:48:17.945Z,17.2
2022-08-20T08:50:13.840Z,17.2
2022-08-20T08:52:13.852Z,17.2
2022-08-20T08:54:13.854Z,17.2
2022-08-20T08:56:13.848Z,17.2
2022-08-20T08:58:16.809Z,17.2
2022-08-20T09:00:13.865Z,17.3
2022-08-20T09:02:13.939Z,17.2
2022-08-20T09:04:13.869Z,17.3
2022-08-20T09:06:13.864Z,17.3
2022-08-20T09:08:16.977Z,17.2
2022-08-20T09:10:13.868Z,17.3
2022-08-20T09:12:13.873Z,17.2
2022-08-20T09:14:13.874Z,17.3
2022-08-20T09:16:13.880Z,17.2
2022-08-20T09:18:13.882Z,17.3
2022-08-20T09:20:13.885Z,17.3
2022-08-20T09:22:13.892Z,17.2
2022-08-20T09:24:13.892Z,17.2
2022-08-20T09:26:13.894Z,17.2
2022-08-20T09:28:13.892Z,17.3
2022-08-20T09:30:13.899Z,17.3
2022-08-20T09:32:13.895Z,17.3
2022-08-20T09:34:13.901Z,17.3
2022-08-20T09:36:29.150Z,17.2
2022-08-20T09:38:13.899Z,17.3
2022-08-20T09:40:13.984Z,17.2
2022-08-20T09:42:13.913Z,17.2
2022-08-20T09:44:13.908Z,17.2
2022-08-20T09:46:13.906Z,17.2
2022-08-20T09:48:13.914Z,17.3
2022-08-20T09:50:13.921Z,17.4
2022-08-20T09:52:13.920Z,17.4
2022-08-20T09:54:13.917Z,17.4
2022-08-20T09:56:13.918Z,17.3
2022-08-20T09:58:13.923Z,17.3
2022-08-20T10:00:13.975Z,17.4
2022-08-20T10:02:13.930Z,17.4
2022-08-20T10:04:13.926Z,17.3
2022-08-20T10:06:13.935Z,17.4
2022-08-20T10:08:13.943Z,17.4
2022-08-20T10:10:14.010Z,17.6
2022-08-20T10:12:13.950Z,17.7
2022-08-20T10:14:13.946Z,17.8
2022-08-20T10:16:13.953Z,17.7
2022-08-20T10:18:13.954Z,17.7
2022-08-20T10:20:14.024Z,17.9
2022-08-20T10:22:13.966Z,17.9
2022-08-20T10:24:13.967Z,18.1
2022-08-20T10:26:13.993Z,18.2
2022-08-20T10:28:13.978Z,18.4
2022-08-20T10:30:14.015Z,18.5
2022-08-20T10:32:13.980Z,18.4
2022-08-20T10:34:13.981Z,18.1
2022-08-20T10:36:13.988Z,18.2
2022-08-20T10:38:13.982Z,17.7
2022-08-20T10:40:14.074Z,17.9
2022-08-20T10:42:13.988Z,17.7
2022-08-20T10:44:14.000Z,17.7
2022-08-20T10:46:13.997Z,17.7
2022-08-20T10:48:17.128Z,17.7
2022-08-20T10:50:14.001Z,17.7
2022-08-20T10:52:14.004Z,17.9
2022-08-20T10:54:14.011Z,17.8
2022-08-20T10:56:15.693Z,17.7
2022-08-20T10:58:14.017Z,17.6
2022-08-20T11:00:14.034Z,17.7
2022-08-20T11:02:14.100Z,17.7
2022-08-20T11:04:14.020Z,17.6
2022-08-20T11:06:14.031Z,17.5
2022-08-20T11:08:14.028Z,17.5
2022-08-20T11:10:14.160Z,17.4
2022-08-20T11:12:14.043Z,17.5
2022-08-20T11:14:14.041Z,17.4
2022-08-20T11:16:14.040Z,17.5
2022-08-20T11:18:14.049Z,17.7
2022-08-20T11:20:14.042Z,17.9
2022-08-20T11:22:14.046Z,17.8
2022-08-20T11:24:14.054Z,17.5
2022-08-20T11:26:14.057Z,17.4
2022-08-20T11:28:14.060Z,17.3
2022-08-20T11:30:14.062Z,17.3
2022-08-20T11:32:14.064Z,17.1
2022-08-20T11:34:14.064Z,17.2
2022-08-20T11:36:14.076Z,17.1
2022-08-20T11:38:14.074Z,17.3
2022-08-20T11:40:14.092Z,17.1
2022-08-20T11:42:14.073Z,17.1
2022-08-20T11:44:21.656Z,17.2
2022-08-20T11:46:14.082Z,16.8
2022-08-20T11:48:14.093Z,16.8
2022-08-20T11:50:14.094Z,16.7
2022-08-20T11:52:14.109Z,16.5
2022-08-20T11:54:14.107Z,16.7
2022-08-20T11:56:14.129Z,16.6
2022-08-20T11:58:14.179Z,16.7
2022-08-20T12:00:14.183Z,16.9
2022-08-20T12:02:14.215Z,17
2022-08-20T12:04:14.191Z,17
2022-08-20T12:06:14.197Z,17
2022-08-20T12:08:25.528Z,17
2022-08-20T12:10:14.195Z,16.9
2022-08-20T12:12:14.199Z,17
2022-08-20T12:14:14.206Z,16.9
2022-08-20T12:16:14.202Z,17
2022-08-20T12:18:14.220Z,17
2022-08-20T12:20:14.220Z,17
2022-08-20T12:22:20.488Z,17.2
2022-08-20T12:24:14.218Z,17.1
2022-08-20T12:26:14.224Z,17.3
2022-08-20T12:28:14.223Z,17
2022-08-20T12:30:14.226Z,17
2022-08-20T12:32:14.230Z,16.6
2022-08-20T12:34:14.238Z,16.7
2022-08-20T12:36:14.242Z,16.6
2022-08-20T12:38:14.251Z,16.6
2022-08-20T12:40:14.310Z,16.6
2022-08-20T12:42:14.242Z,16.6
2022-08-20T12:44:14.282Z,16.8
2022-08-20T12:46:14.250Z,16.6
2022-08-20T12:48:14.256Z,16.3
2022-08-20T12:50:14.257Z,16.1
2022-08-20T12:52:14.270Z,16.6
2022-08-20T12:54:14.271Z,16.6
2022-08-20T12:56:14.270Z,16.6
2022-08-20T12:58:14.275Z,16.5
2022-08-20T13:00:14.272Z,16.5
2022-08-20T13:02:18.439Z,16.4
2022-08-20T13:04:14.282Z,16.3
2022-08-20T13:06:14.287Z,16.3
2022-08-20T13:08:14.287Z,16.4
2022-08-20T13:10:14.291Z,16.5
2022-08-20T13:12:14.289Z,16.5
2022-08-20T13:14:14.295Z,16.6
2022-08-20T13:16:14.299Z,16.5
2022-08-20T13:18:14.295Z,16.5
2022-08-20T13:20:14.303Z,16.6
2022-08-20T13:22:14.309Z,16.5
2022-08-20T13:24:14.325Z,16.5
2022-08-20T13:26:14.321Z,16.5
2022-08-20T13:28:14.321Z,16.5
2022-08-20T13:30:14.318Z,16.6
2022-08-20T13:32:14.327Z,16.5
2022-08-20T13:34:14.327Z,16.4
2022-08-20T13:36:14.335Z,16.3
2022-08-20T13:38:14.335Z,16.4
2022-08-20T13:40:14.385Z,16.4
2022-08-20T13:42:14.342Z,16
2022-08-20T13:44:14.344Z,16
2022-08-20T13:46:14.346Z,16.2
2022-08-20T13:48:15.063Z,16.3
2022-08-20T13:50:14.360Z,16.4
2022-08-20T13:52:16.352Z,16.3
2022-08-20T13:54:14.366Z,16.3
2022-08-20T13:56:14.374Z,16.4
2022-08-20T13:58:14.373Z,16.3
2022-08-20T14:00:14.377Z,16.3
2022-08-20T14:02:14.376Z,16.4
2022-08-20T14:04:14.388Z,16.4
2022-08-20T14:06:14.393Z,16.6
2022-08-20T14:08:14.397Z,16.2
2022-08-20T14:10:14.401Z,16.1
2022-08-20T14:12:14.462Z,16.1
2022-08-20T14:14:14.415Z,16.2
2022-08-20T14:16:17.199Z,16.2
2022-08-20T14:18:14.423Z,16.3
2022-08-20T14:20:14.430Z,16.1
2022-08-20T14:22:14.429Z,16
2022-08-20T14:24:14.437Z,16
2022-08-20T14:26:14.439Z,15.8
2022-08-20T14:28:14.434Z,15.6
2022-08-20T14:30:14.450Z,15.8
2022-08-20T14:32:14.449Z,15.9
2022-08-20T14:34:14.457Z,15.9
2022-08-20T14:36:14.457Z,15.7
2022-08-20T14:38:14.459Z,15.9
2022-08-20T14:40:14.545Z,15.8
2022-08-20T14:42:14.472Z,15.8
2022-08-20T14:44:14.471Z,15.8
2022-08-20T14:46:14.483Z,15.7
2022-08-20T14:48:14.490Z,15.7
2022-08-20T14:50:14.500Z,15.6
2022-08-20T14:52:14.504Z,15.7
2022-08-20T14:54:14.503Z,15.7
2022-08-20T14:56:14.509Z,15.7
2022-08-20T14:58:14.514Z,15.6
2022-08-20T15:00:14.523Z,15.6
2022-08-20T15:02:14.533Z,15.6
2022-08-20T15:04:14.536Z,15.5
2022-08-20T15:06:18.610Z,15.5
2022-08-20T15:08:14.559Z,15.2
2022-08-20T15:10:14.572Z,15.2
2022-08-20T15:12:14.565Z,15
2022-08-20T15:14:15.126Z,14.7
2022-08-20T15:16:14.577Z,14.9
2022-08-20T15:18:14.578Z,14.7
2022-08-20T15:20:20.013Z,14.8
2022-08-20T15:22:14.588Z,14.8
2022-08-20T15:24:15.605Z,14.5
2022-08-20T15:26:14.603Z,14.7
2022-08-20T15:28:14.610Z,14.5
2022-08-20T15:30:14.612Z,14.7
2022-08-20T15:32:14.621Z,15
2022-08-20T15:34:17.555Z,15
2022-08-20T15:36:14.619Z,15
2022-08-20T15:38:14.627Z,15.1
2022-08-20T15:40:15.944Z,15.5
2022-08-20T15:42:14.633Z,15.7
2022-08-20T15:44:14.639Z,15.8
2022-08-20T15:46:14.638Z,15.8
2022-08-20T15:48:14.636Z,15.7
2022-08-20T15:50:14.654Z,15.8
2022-08-20T15:52:14.651Z,16
2022-08-20T15:54:14.660Z,16.1
2022-08-20T15:56:14.656Z,16.1
2022-08-20T15:58:14.657Z,16.1
2022-08-20T16:00:14.658Z,16.4
2022-08-20T16:02:14.667Z,16.2
2022-08-20T16:04:14.668Z,16.2
2022-08-20T16:06:14.676Z,16.2
2022-08-20T16:08:14.677Z,16.1
2022-08-20T16:10:15.834Z,16.3
2022-08-20T16:12:14.678Z,16.3
2022-08-20T16:14:14.693Z,16.4
2022-08-20T16:16:14.686Z,16.3
2022-08-20T16:18:14.690Z,16.3
2022-08-20T16:20:14.688Z,16.4
2022-08-20T16:22:14.691Z,16.3
2022-08-20T16:24:14.709Z,16.4
2022-08-20T16:26:14.695Z,16.4
2022-08-20T16:28:14.700Z,16.2
2022-08-20T16:30:17.690Z,16.3
2022-08-20T16:32:14.696Z,16.4
2022-08-20T16:34:23.443Z,16.4
2022-08-20T16:36:14.695Z,16.4
2022-08-20T16:38:14.698Z,16.3
2022-08-20T16:40:14.810Z,16.3
2022-08-20T16:42:14.710Z,16.4
2022-08-20T16:44:14.711Z,16.4
2022-08-20T16:46:14.706Z,16.3
2022-08-20T16:48:14.707Z,16.4
2022-08-20T16:50:14.709Z,16.4
2022-08-20T16:52:14.713Z,16.5
2022-08-20T16:54:14.726Z,16.5
2022-08-20T16:56:14.730Z,16.4
2022-08-20T16:58:14.726Z,16.2
2022-08-20T17:00:14.729Z,16.1
2022-08-20T17:02:14.730Z,16.2
2022-08-20T17:04:14.734Z,16.2
2022-08-20T17:06:14.764Z,15.9
2022-08-20T17:08:14.748Z,15.9
2022-08-20T17:10:14.756Z,15.9
2022-08-20T17:12:14.756Z,16
2022-08-20T17:14:14.755Z,15.9
2022-08-20T17:16:14.766Z,15.9
2022-08-20T17:18:14.769Z,15.8
2022-08-20T17:20:16.345Z,15.8
2022-08-20T17:22:14.781Z,15.9
2022-08-20T17:24:16.369Z,15.9
2022-08-20T17:26:14.782Z,16
2022-08-20T17:28:14.786Z,15.6
2022-08-20T17:30:19.736Z,15.6
2022-08-20T17:32:14.811Z,15.5
2022-08-20T17:34:14.810Z,15.5
2022-08-20T17:36:14.816Z,15.5
2022-08-20T17:38:14.818Z,15.4
2022-08-20T17:40:14.901Z,15.5
2022-08-20T17:42:14.831Z,15.5
2022-08-20T17:44:14.832Z,15.5
2022-08-20T17:46:14.836Z,15.4
2022-08-20T17:48:14.836Z,15.5
2022-08-20T17:50:14.846Z,15.4
2022-08-20T17:52:14.852Z,15.4
2022-08-20T17:54:14.861Z,15.4
2022-08-20T17:56:14.857Z,15.4
2022-08-20T17:58:14.870Z,15.4
2022-08-20T18:00:14.869Z,15.4
2022-08-20T18:02:14.951Z,15.4
2022-08-20T18:04:14.874Z,15.4
2022-08-20T18:06:14.881Z,15.4
2022-08-20T18:08:14.888Z,15.5
2022-08-20T18:10:14.890Z,15.5
2022-08-20T18:12:21.543Z,15.6
2022-08-20T18:14:14.893Z,15.6
2022-08-20T18:16:16.828Z,15.6
2022-08-20T18:18:14.914Z,15.6
2022-08-20T18:20:14.913Z,15.6
2022-08-20T18:22:14.920Z,15.5
2022-08-20T18:24:14.932Z,15.5
2022-08-20T18:26:14.937Z,15.5
2022-08-20T18:28:14.936Z,15.5
2022-08-20T18:30:14.937Z,15.5
2022-08-20T18:32:14.945Z,15.4
2022-08-20T18:34:14.943Z,15.4
2022-08-20T18:36:14.955Z,15.4
2022-08-20T18:38:14.962Z,15.4
2022-08-20T18:40:14.997Z,15.3
2022-08-20T18:42:14.973Z,15.3
2022-08-20T18:44:14.973Z,15.3
2022-08-20T18:46:14.984Z,15.3
2022-08-20T18:48:14.984Z,15.4
2022-08-20T18:50:16.237Z,15.4
2022-08-20T18:52:14.991Z,15.3
2022-08-20T18:54:14.994Z,15.4
2022-08-20T18:56:15.001Z,15.4
2022-08-20T18:58:15.002Z,15.5
2022-08-20T19:00:15.003Z,15.4
2022-08-20T19:02:15.009Z,15.4
2022-08-20T19:04:15.015Z,15.3
2022-08-20T19:06:15.019Z,15.3
2022-08-20T19:08:15.029Z,15.3
2022-08-20T19:10:27.797Z,15.3
2022-08-20T19:12:15.031Z,15.3
2022-08-20T19:14:15.046Z,15.3
2022-08-20T19:16:15.031Z,15.4
2022-08-20T19:18:15.035Z,15.4
2022-08-20T19:20:15.053Z,15.4
2022-08-20T19:22:15.051Z,15.4
2022-08-20T19:24:15.055Z,15.4
2022-08-20T19:26:19.736Z,15.4
2022-08-20T19:28:15.072Z,15.4
2022-08-20T19:30:15.075Z,15.5
2022-08-20T19:32:15.076Z,15.5
2022-08-20T19:34:20.501Z,15.5
2022-08-20T19:36:15.091Z,15.4
2022-08-20T19:38:15.079Z,15.4
2022-08-20T19:40:15.116Z,15.3
2022-08-20T19:42:15.093Z,15.4
2022-08-20T19:44:15.097Z,15.5
2022-08-20T19:46:15.096Z,15.5
2022-08-20T19:48:15.107Z,15.4
2022-08-20T19:50:15.108Z,15.4
2022-08-20T19:52:15.103Z,15.4
2022-08-20T19:54:15.114Z,15.4
2022-08-20T19:56:15.114Z,15.5
2022-08-20T19:58:16.848Z,15.4
2022-08-20T20:00:15.119Z,15.4
2022-08-20T20:02:20.225Z,15.6
2022-08-20T20:04:15.132Z,15.6
2022-08-20T20:06:16.808Z,15.7
2022-08-20T20:08:15.139Z,15.6
2022-08-20T20:10:15.135Z,15.6
2022-08-20T20:12:20.873Z,15.5
2022-08-20T20:14:15.148Z,15.5
2022-08-20T20:16:15.152Z,15.6
2022-08-20T20:18:15.148Z,15.5
2022-08-20T20:20:15.146Z,15.6
2022-08-20T20:22:19.842Z,15.5
2022-08-20T20:24:15.150Z,15.5
2022-08-20T20:26:15.152Z,15.5
2022-08-20T20:28:15.152Z,15.5
2022-08-20T20:30:15.156Z,15.6
2022-08-20T20:32:15.169Z,15.6
2022-08-20T20:34:15.166Z,15.5
2022-08-20T20:36:15.163Z,15.5
2022-08-20T20:38:15.169Z,15.5
2022-08-20T20:40:19.417Z,15.5
2022-08-20T20:42:15.170Z,15.3
2022-08-20T20:44:15.167Z,15.2
2022-08-20T20:46:15.176Z,15.2
2022-08-20T20:48:15.177Z,15.1
2022-08-20T20:50:15.183Z,15.1
2022-08-20T20:52:15.448Z,14.6
2022-08-20T20:54:15.186Z,14.3
2022-08-20T20:56:15.190Z,14.4
2022-08-20T20:58:15.191Z,14.1
2022-08-20T21:00:15.197Z,14
2022-08-20T21:02:15.227Z,13.9
2022-08-20T21:04:15.193Z,13.8
2022-08-20T21:06:15.197Z,13.7
2022-08-20T21:08:15.190Z,13.6
2022-08-20T21:10:15.197Z,13.6
2022-08-20T21:12:15.199Z,13.5
2022-08-20T21:14:15.202Z,13.5
2022-08-20T21:16:15.202Z,13.5
2022-08-20T21:18:15.213Z,13.5
2022-08-20T21:20:15.219Z,13.5
2022-08-20T21:22:15.219Z,13.4
2022-08-20T21:24:15.233Z,13.4
2022-08-20T21:26:15.238Z,13.3
2022-08-20T21:28:15.245Z,13.3
2022-08-20T21:30:15.265Z,13.3
2022-08-20T21:32:15.409Z,13.2
2022-08-20T21:34:15.289Z,13.2
2022-08-20T21:36:15.294Z,13.2
2022-08-20T21:38:15.317Z,13.1
2022-08-20T21:40:15.366Z,13.1
2022-08-20T21:42:18.552Z,13.2
2022-08-20T21:44:15.353Z,13.1
2022-08-20T21:46:15.366Z,13.1
2022-08-20T21:48:15.369Z,13.1
2022-08-20T21:50:15.376Z,13.1
2022-08-20T21:52:15.384Z,13.1
2022-08-20T21:54:15.396Z,13.1
2022-08-20T21:56:15.400Z,13.1
2022-08-20T21:58:15.402Z,13.1
2022-08-20T22:00:15.421Z,13.1
2022-08-20T22:02:15.419Z,13.1
2022-08-20T22:04:15.427Z,13.1
2022-08-20T22:06:15.439Z,13.1
2022-08-20T22:08:15.441Z,12.9
2022-08-20T22:10:15.449Z,12.9
2022-08-20T22:12:15.454Z,12.9
2022-08-20T22:14:15.454Z,12.9
2022-08-20T22:16:15.459Z,12.9
2022-08-20T22:18:15.460Z,12.9
2022-08-20T22:20:15.468Z,12.9
2022-08-20T22:22:15.473Z,12.8
2022-08-20T22:24:15.479Z,12.8
2022-08-20T22:26:15.492Z,12.7
2022-08-20T22:28:15.498Z,12.7
2022-08-20T22:30:15.510Z,12.5
2022-08-20T22:32:15.520Z,12.5
2022-08-20T22:34:15.527Z,12.5
2022-08-20T22:36:15.527Z,12.5
2022-08-20T22:38:15.541Z,12.5
2022-08-20T22:40:15.589Z,12.5
2022-08-20T22:42:15.548Z,12.5
2022-08-20T22:44:15.558Z,12.4
2022-08-20T22:46:15.565Z,12.4
2022-08-20T22:48:15.569Z,12.4
2022-08-20T22:50:15.592Z,12.3
2022-08-20T22:52:15.598Z,12.3
2022-08-20T22:54:15.609Z,12.2
2022-08-20T22:56:19.756Z,12.1
2022-08-20T22:58:15.613Z,12.1
2022-08-20T23:00:15.636Z,12.2
2022-08-20T23:02:15.631Z,12.1
2022-08-20T23:04:15.638Z,12
2022-08-20T23:06:15.643Z,12
2022-08-20T23:08:15.643Z,12
2022-08-20T23:10:15.647Z,12
2022-08-20T23:12:15.658Z,12
2022-08-20T23:14:15.665Z,12.1
2022-08-20T23:16:15.672Z,12.2
2022-08-20T23:18:15.679Z,12.2
2022-08-20T23:20:15.687Z,12.2
2022-08-20T23:22:15.698Z,12.2
2022-08-20T23:24:15.707Z,12.2
2022-08-20T23:26:15.723Z,12.3
2022-08-20T23:28:15.725Z,12.3
2022-08-20T23:30:15.733Z,12.2
2022-08-20T23:32:15.745Z,12.2
2022-08-20T23:34:15.751Z,12.2
2022-08-20T23:36:15.765Z,12.2
2022-08-20T23:38:15.766Z,12.2
2022-08-20T23:40:15.811Z,12.2
2022-08-20T23:42:15.790Z,12.2
2022-08-20T23:44:25.532Z,12.2
2022-08-20T23:46:15.807Z,12.1
2022-08-20T23:48:15.826Z,12.1
2022-08-20T23:50:15.886Z,12
2022-08-20T23:52:15.831Z,11.9
2022-08-20T23:54:15.841Z,11.9
2022-08-20T23:56:15.844Z,11.9
2022-08-20T23:58:15.855Z,12
